< < Back
Terminal Aerodrome Forecast


Current Version              Previous Versions:   1  2  3  4  5  6  7  8  9  

Terminal Aerodrome Forecast

499
FTUS42 KJAX 240500
TAFGNV
TAF
KGNV 240521Z 2406/2506 00000KT P6SM SCT250
     FM241400 02004KT P6SM SCT025 SCT250
     FM241700 04008KT P6SM SCT035 BKN250
     FM250200 00000KT P6SM FEW250=



Latest METAR

434
SAUS70 KWBC 250900 RRK
MTRGNV
METAR KGNV 250853Z AUTO 00000KT 10SM CLR 08/08 A2999 RMK AO2 SLP153
T00830078 55004


USA.gov is the U.S. government's official web portal to all federal, state and local government web resources and services.